This is the latest recevied weather packets stored in our database for station/object DG9BJA-13. If no packets are shown the sender has not sent any weather packets the latest 1 day(s).
| Time | Temp. | Humidity | Pressure | Rain* | Wind** | Luminosity | Snow |
|---|---|---|---|---|---|---|---|
| 1836274450 | 19.44° C | 67% | 1015.1 hPa | 0 mm | 1.79 m/s, 0° | 0 W/m² | - |
| 1836274300 | 19.44° C | 67% | 1014.9 hPa | 0 mm | 2.24 m/s, 180° | 0 W/m² | - |
| 1778037975 | 7.78° C | 94% | 1006.9 hPa | 2.79 mm | 2.24 m/s, 23° | 0 W/m² | - |
| 1778037376 | 7.78° C | 94% | 1006.9 hPa | 2.79 mm | 2.68 m/s, 45° | 0 W/m² | - |
| 1778036775 | 7.78° C | 93% | 1007.1 hPa | 3.05 mm | 2.68 m/s, 45° | 0 W/m² | - |
| 1778036176 | 7.78° C | 93% | 1007.2 hPa | 3.05 mm | 3.13 m/s, 0° | 0 W/m² | - |
| 1778035576 | 7.78° C | 93% | 1007.2 hPa | 3.05 mm | 3.13 m/s, 45° | 0 W/m² | - |
| 1778034975 | 8.33° C | 93% | 1007.3 hPa | 3.05 mm | 3.58 m/s, 23° | 0 W/m² | - |
| 1778034375 | 8.33° C | 93% | 1007.3 hPa | 3.05 mm | 3.58 m/s, 45° | 0 W/m² | - |
| 1778033775 | 8.33° C | 93% | 1007.3 hPa | 2.79 mm | 4.02 m/s, 23° | 0 W/m² | - |
| 1778033175 | 8.33° C | 93% | 1007.4 hPa | 2.54 mm | 2.24 m/s, 45° | 0 W/m² | - |
| 1778032575 | 8.89° C | 93% | 1007.4 hPa | 2.29 mm | 2.24 m/s, 23° | 0 W/m² | - |
| 1778031975 | 8.89° C | 92% | 1007.4 hPa | 2.03 mm | 3.13 m/s, 45° | 0 W/m² | - |
| 1778031375 | 8.89° C | 92% | 1007.5 hPa | 1.52 mm | 2.68 m/s, 0° | 0 W/m² | - |
| 1778030775 | 8.89° C | 92% | 1007.6 hPa | 1.27 mm | 2.24 m/s, 0° | 0 W/m² | - |
| 1778030177 | 9.44° C | 91% | 1007.6 hPa | 1.27 mm | 1.79 m/s, 23° | 0 W/m² | - |
| 1778029577 | 9.44° C | 91% | 1007.6 hPa | 1.02 mm | 2.68 m/s, 23° | 0 W/m² | - |
| 1778028977 | 9.44° C | 90% | 1007.8 hPa | 0.76 mm | 1.79 m/s, 0° | 0 W/m² | - |
| 1778028377 | 9.44° C | 90% | 1007.8 hPa | 0.51 mm | 1.79 m/s, 0° | 0 W/m² | - |
| 1778027777 | 10° C | 89% | 1007.9 hPa | 0.51 mm | 2.68 m/s, 23° | 0 W/m² | - |
| 1778027177 | 10° C | 88% | 1007.9 hPa | 0.25 mm | 2.68 m/s, 23° | 0 W/m² | - |
| 1778026577 | 10° C | 88% | 1007.9 hPa | 0 mm | 3.13 m/s, 23° | 0 W/m² | - |
| 1778025977 | 10° C | 88% | 1007.9 hPa | 0 mm | 2.68 m/s, 45° | 0 W/m² | - |
| 1778025377 | 10° C | 89% | 1008.1 hPa | 0 mm | 2.24 m/s, 23° | 0 W/m² | - |
| 1778024777 | 10° C | 89% | 1008.1 hPa | 0 mm | 3.13 m/s, 23° | 0 W/m² | - |
* Rain latest hour (hover to see other rain measurements)
** Current wind speed in m/s (hover to see current wind gust speed)